Search for airport 
image banner adimage banner ad
image banner ad

EVGA - Lielvarde (Mil)

Located in Lielvarde, Latvia

ICAO - EVGA, IATA -

Data provided by Airmate  

General information

Coordinates: N56°46'45" E24°51'14"
Elevation is 207 feet MSL.
Magnetic variation is 8° East
Rated:
View ratings: [VIEW]


View others Airports in Ogre District

Operational data

Open for public use
Current time UTC:
Current local time:
Weather at : EVRA - Riga ( 56 km )
METAR: EVRA 070120Z 00000KT CAVOK 13/13 Q1027 NOSIG
TAF: TAF EVRA 062304Z 0700/0724 VRB02KT CAVOK
View NOTAMs / SUP AIP / TFR affecting this airport [VIEW]
Communications frequencies: [VIEW]

Runways:

RWY identifierQFULength (ft)Width (ft)SurfaceLDA (ft)
18187°8202148CONC+ASPH8202
368202148CONC+ASPH8202

Airport contact information

Address: Lielvarde Latvia

Satellite view of EVGA